Time;durP1;ratioP1;P1;durP2;ratioP2;P2;SDS_P1;SDS_P2;PMS_P1;PMS_P2;Temp;Humidity;BMP_temperature;BMP_pressure;BME280_temperature;BME280_humidity;BME280_pressure;Samples;Min_cycle;Max_cycle;Signal;HPM_P1;HPM_P2
2021/07/12 00:02:10;;;;;;;9.50;6.20;;;;;;;26.63;46.00;100371.31;4394838;32;20096;-89
2021/07/12 00:04:36;;;;;;;9.48;6.72;;;;;;;26.76;45.96;100371.25;4409029;32;20470;-89
2021/07/12 00:07:02;;;;;;;7.93;5.82;;;;;;;26.81;45.91;100365.34;4407767;32;20117;-89
2021/07/12 00:09:28;;;;;;;7.87;6.03;;;;;;;26.75;46.09;100358.19;4399216;32;20038;-90
2021/07/12 00:11:54;;;;;;;8.55;5.75;;;;;;;26.67;45.92;100355.19;4395182;32;20442;-90
2021/07/12 00:14:20;;;;;;;13.20;6.75;;;;;;;26.69;46.16;100361.16;4409658;32;20366;-90
2021/07/12 00:16:46;;;;;;;8.45;5.57;;;;;;;26.75;46.33;100356.03;4405879;32;20120;-88
2021/07/12 00:19:11;;;;;;;9.88;6.10;;;;;;;26.66;46.22;100356.50;4406019;32;20093;-90
2021/07/12 00:21:38;;;;;;;6.97;5.60;;;;;;;26.77;46.29;100349.72;4397968;32;20046;-89
2021/07/12 00:24:04;;;;;;;9.48;5.95;;;;;;;26.79;46.08;100350.69;4408376;32;20095;-90
2021/07/12 00:26:30;;;;;;;10.32;5.82;;;;;;;26.91;45.46;100349.09;4409773;32;20034;-89
2021/07/12 00:28:55;;;;;;;7.60;5.30;;;;;;;26.93;45.78;100357.19;4407542;32;20465;-90
2021/07/12 00:31:21;;;;;;;8.95;5.03;;;;;;;26.93;45.79;100360.09;4404508;32;20150;-90
2021/07/12 00:33:47;;;;;;;7.93;5.30;;;;;;;26.92;46.00;100359.31;4408526;32;20077;-90
2021/07/12 00:36:12;;;;;;;7.62;4.78;;;;;;;26.97;45.03;100351.88;4405885;32;20380;-89
2021/07/12 00:38:38;;;;;;;8.75;5.10;;;;;;;26.88;44.98;100361.00;4406678;32;20082;-89
2021/07/12 00:41:04;;;;;;;11.18;6.50;;;;;;;26.88;44.45;100366.78;4407447;32;20093;-91
2021/07/12 00:43:30;;;;;;;8.85;5.82;;;;;;;26.90;44.40;100362.00;4397468;32;20045;-90
2021/07/12 00:45:56;;;;;;;6.68;5.28;;;;;;;26.85;45.25;100362.13;4406785;32;20103;-88
2021/07/12 00:48:22;;;;;;;8.43;5.53;;;;;;;26.79;44.84;100368.00;4404797;32;20090;-89
2021/07/12 00:50:48;;;;;;;8.27;5.93;;;;;;;26.81;44.53;100358.78;4407492;32;20103;-89
2021/07/12 00:53:14;;;;;;;9.48;5.82;;;;;;;26.72;45.32;100354.28;4408776;32;20062;-89
2021/07/12 00:55:46;;;;;;;7.68;5.72;;;;;;;26.82;45.15;100360.38;4406679;32;20049;-90
2021/07/12 00:58:15;;;;;;;9.73;6.25;;;;;;;26.96;45.08;100358.97;4394282;32;20109;-88
2021/07/12 01:00:44;;;;;;;8.35;6.05;;;;;;;26.91;45.45;100354.12;4394558;32;20383;-89
2021/07/12 01:03:12;;;;;;;9.95;6.00;;;;;;;26.75;46.38;100361.06;4407101;32;20057;-89
2021/07/12 01:05:40;;;;;;;8.75;5.90;;;;;;;26.94;45.90;100359.53;4405996;32;20038;-91
2021/07/12 01:08:06;;;;;;;9.95;5.90;;;;;;;26.72;45.79;100362.19;4411011;32;20049;-89
2021/07/12 01:10:34;;;;;;;12.65;6.45;;;;;;;26.63;45.74;100354.75;4407075;32;20442;-88
2021/07/12 01:13:32;;;;;;;8.75;6.10;;;;;;;26.60;45.22;100352.19;4407403;32;20070;-90
2021/07/12 01:24:47;;;;;;;11.68;7.78;;;;;;;27.56;44.67;100353.00;3986258;32;15030560;-74
2021/07/12 01:30:23;;;;;;;12.48;6.43;;;;;;;27.58;44.49;100347.44;3982785;32;15023412;-73
2021/07/12 01:33:16;;;;;;;12.30;7.50;;;;;;;27.58;44.49;100347.44;4439767;32;20076;-74
2021/07/12 01:41:06;;;;;;;12.98;7.60;;;;;;;27.49;44.82;100345.84;3982659;32;15022707;-74
2021/07/12 01:46:15;;;;;;;11.15;7.55;;;;;;;27.40;45.49;100334.78;3957895;32;15723452;-76
2021/07/12 01:48:57;;;;;;;13.30;7.00;;;;;;;27.40;45.49;100334.78;4438485;32;20028;-73
2021/07/12 01:51:31;;;;;;;10.88;6.85;;;;;;;27.12;45.74;100334.69;4431807;32;20626;-73
2021/07/12 01:54:06;;;;;;;10.02;7.62;;;;;;;26.94;46.27;100330.62;4438050;32;20018;-72
2021/07/12 01:56:35;;;;;;;;;;;;;;;26.98;45.88;100331.09;4435501;32;20552;-74
2021/07/12 02:01:38;;;;;;;10.13;7.07;;;;;;;27.19;45.62;100333.97;3951232;32;15722616;-73
2021/07/12 02:04:05;;;;;;;10.50;7.15;;;;;;;27.19;45.62;100333.97;4432397;32;20017;-72
2021/07/12 02:06:39;;;;;;;10.02;7.37;;;;;;;26.97;46.25;100325.88;4435027;32;20449;-72
2021/07/12 02:09:07;;;;;;;11.15;7.68;;;;;;;27.12;46.18;100323.12;4435005;32;20022;-72
2021/07/12 02:11:36;;;;;;;11.75;7.53;;;;;;;26.95;46.84;100320.66;4433327;32;20158;-74
2021/07/12 02:14:04;;;;;;;12.95;8.13;;;;;;;27.01;46.71;100315.53;4431339;32;20021;-72
2021/07/12 02:16:31;;;;;;;9.90;6.87;;;;;;;26.87;47.17;100305.34;4434744;32;20014;-72
2021/07/12 02:18:58;;;;;;;11.40;6.87;;;;;;;26.84;46.80;100302.81;4431450;32;20072;-73
2021/07/12 02:21:25;;;;;;;11.45;6.80;;;;;;;26.95;46.27;100312.00;4431923;32;20775;-74
2021/07/12 02:23:51;;;;;;;9.43;6.85;;;;;;;26.90;46.32;100301.34;4433175;32;20103;-72
2021/07/12 02:26:18;;;;;;;10.55;7.62;;;;;;;26.84;46.18;100305.69;4433703;32;20504;-72
2021/07/12 02:28:46;;;;;;;10.90;7.55;;;;;;;26.86;46.10;100306.72;4431161;32;20307;-72
2021/07/12 02:31:14;;;;;;;10.35;7.80;;;;;;;26.93;45.95;100308.09;4430336;32;20530;-74
2021/07/12 02:33:42;;;;;;;11.93;7.75;;;;;;;27.01;46.14;100306.84;4436195;32;20116;-73
2021/07/12 02:36:09;;;;;;;11.07;7.10;;;;;;;26.90;46.55;100304.22;4434731;32;20038;-73
2021/07/12 02:38:38;;;;;;;10.80;7.30;;;;;;;26.86;46.30;100308.81;4432091;32;20018;-72
2021/07/12 02:41:05;;;;;;;10.20;7.55;;;;;;;27.09;46.13;100312.69;4433407;32;20045;-72
2021/07/12 02:43:35;;;;;;;11.88;6.60;;;;;;;26.67;46.33;100308.22;4431458;32;20143;-73
2021/07/12 02:46:03;;;;;;;9.68;6.57;;;;;;;26.83;46.32;100313.59;4434256;32;20077;-74
2021/07/12 02:48:29;;;;;;;9.98;7.07;;;;;;;26.94;46.31;100306.78;4433438;32;20088;-74
2021/07/12 02:50:56;;;;;;;8.88;6.82;;;;;;;26.60;46.67;100315.44;4433499;32;20485;-73
2021/07/12 02:53:29;;;;;;;11.93;7.68;;;;;;;26.99;45.98;100317.41;4432190;32;20472;-72
2021/07/12 02:55:56;;;;;;;12.02;7.30;;;;;;;27.04;46.06;100305.72;4432935;32;20117;-73
2021/07/12 02:58:22;;;;;;;9.65;6.55;;;;;;;26.84;46.61;100299.91;4433131;32;20375;-73
2021/07/12 03:00:47;;;;;;;8.90;6.68;;;;;;;26.91;46.13;100293.47;4429925;32;20116;-74
2021/07/12 03:03:13;;;;;;;14.73;7.95;;;;;;;26.83;46.65;100295.50;4432990;32;20044;-74
2021/07/12 03:05:39;;;;;;;10.23;6.87;;;;;;;26.96;46.31;100292.53;4430920;32;20430;-75
2021/07/12 03:08:10;;;;;;;9.10;6.15;;;;;;;26.96;46.23;100286.75;4433912;32;20033;-74
2021/07/12 03:10:42;;;;;;;9.77;7.00;;;;;;;27.25;45.74;100281.84;4435884;32;20033;-72
2021/07/12 03:13:12;;;;;;;10.23;6.82;;;;;;;27.16;45.87;100286.00;4420434;32;20053;-73
2021/07/12 03:15:44;;;;;;;11.38;6.93;;;;;;;27.15;46.12;100282.31;4423523;32;20068;-72
2021/07/12 03:18:19;;;;;;;9.73;7.03;;;;;;;27.16;46.09;100278.06;4421232;32;20060;-72
2021/07/12 03:20:46;;;;;;;8.48;6.35;;;;;;;27.23;45.68;100283.16;4421525;32;20055;-72
2021/07/12 03:23:15;;;;;;;10.27;7.28;;;;;;;26.82;46.35;100273.75;4422367;32;20099;-73
2021/07/12 03:25:47;;;;;;;11.35;7.12;;;;;;;26.69;46.31;100274.56;4422913;32;20453;-72
2021/07/12 03:28:14;;;;;;;8.60;6.53;;;;;;;26.87;46.19;100284.34;4422983;32;20160;-72
2021/07/12 03:30:43;;;;;;;9.48;6.53;;;;;;;26.64;46.60;100271.81;4426812;32;20048;-73
2021/07/12 03:33:08;;;;;;;12.55;6.80;;;;;;;26.53;46.34;100267.06;4422005;32;20096;-73
2021/07/12 03:35:41;;;;;;;9.80;7.12;;;;;;;26.23;46.84;100260.19;4420083;32;20038;-72
2021/07/12 03:38:07;;;;;;;12.48;7.70;;;;;;;26.58;46.45;100271.94;4420542;32;20078;-72
2021/07/12 03:40:33;;;;;;;11.10;7.00;;;;;;;26.49;46.75;100268.75;4424290;32;20398;-73
2021/07/12 03:43:01;;;;;;;12.43;8.82;;;;;;;26.44;46.78;100263.87;4422719;32;20460;-73
2021/07/12 03:45:27;;;;;;;13.50;8.13;;;;;;;26.33;47.63;100264.13;4422690;32;20072;-73
2021/07/12 03:47:54;;;;;;;10.30;7.05;;;;;;;26.23;47.33;100258.06;4428232;32;20046;-72
2021/07/12 03:50:19;;;;;;;13.40;8.25;;;;;;;26.18;47.39;100263.97;4424475;32;20494;-74
2021/07/12 03:52:50;;;;;;;13.05;8.35;;;;;;;26.21;47.45;100262.84;4420554;32;20068;-74
2021/07/12 03:55:20;;;;;;;13.32;8.13;;;;;;;26.45;47.01;100266.19;4422238;32;20059;-73
2021/07/12 03:57:46;;;;;;;11.12;7.75;;;;;;;26.41;47.10;100262.09;4420937;32;20034;-72
2021/07/12 04:00:15;;;;;;;11.75;7.70;;;;;;;26.27;47.13;100257.72;4424572;32;20108;-74
2021/07/12 04:02:42;;;;;;;10.70;8.05;;;;;;;26.51;47.03;100260.31;4420640;32;20061;-74
2021/07/12 04:05:09;;;;;;;10.52;6.78;;;;;;;26.27;47.04;100260.59;4420437;32;20426;-74
2021/07/12 04:07:36;;;;;;;13.48;7.65;;;;;;;26.40;46.94;100261.34;4422606;32;20490;-73
2021/07/12 04:10:05;;;;;;;11.95;7.82;;;;;;;26.57;47.01;100267.47;4422509;32;20025;-73
2021/07/12 04:12:39;;;;;;;12.25;7.75;;;;;;;26.77;46.69;100263.87;4419864;32;20069;-75
2021/07/12 04:15:06;;;;;;;9.25;6.85;;;;;;;26.67;46.75;100268.59;4421256;32;20041;-73
2021/07/12 04:17:32;;;;;;;9.35;6.70;;;;;;;26.58;46.40;100271.16;4420617;32;20527;-73
2021/07/12 04:19:58;;;;;;;9.77;6.95;;;;;;;26.60;46.84;100263.47;4421458;32;20038;-72
2021/07/12 04:22:24;;;;;;;9.73;6.50;;;;;;;26.66;46.51;100264.13;4420763;32;20060;-73
2021/07/12 04:24:51;;;;;;;9.93;6.57;;;;;;;26.67;46.37;100267.81;4423173;32;20048;-74
2021/07/12 04:27:17;;;;;;;8.15;6.22;;;;;;;26.60;46.66;100268.50;4419486;32;20045;-72
2021/07/12 04:29:43;;;;;;;9.90;6.10;;;;;;;26.67;46.06;100262.03;4422087;32;20046;-73
2021/07/12 04:32:09;;;;;;;10.55;6.07;;;;;;;26.70;46.43;100266.69;4422678;32;20117;-72
2021/07/12 04:34:39;;;;;;;10.23;5.93;;;;;;;26.93;46.08;100267.66;4422521;32;20499;-74
2021/07/12 04:37:05;;;;;;;12.32;6.37;;;;;;;26.86;46.04;100268.38;4422832;32;20112;-74
2021/07/12 04:39:31;;;;;;;9.02;6.45;;;;;;;26.96;45.86;100267.31;4418865;32;20156;-73
2021/07/12 04:41:58;;;;;;;9.07;5.90;;;;;;;26.99;45.46;100271.19;4407112;32;20403;-72
2021/07/12 04:44:23;;;;;;;7.97;5.87;;;;;;;26.94;45.58;100270.00;4420813;32;20499;-73
2021/07/12 04:46:49;;;;;;;8.32;6.00;;;;;;;26.92;45.14;100266.12;4420736;32;20570;-73
2021/07/12 04:49:16;;;;;;;8.10;5.87;;;;;;;26.86;45.11;100266.28;4407667;32;20085;-72
2021/07/12 04:51:42;;;;;;;11.38;6.07;;;;;;;26.99;45.68;100274.06;4420786;32;20069;-74
2021/07/12 04:54:08;;;;;;;8.85;6.72;;;;;;;27.03;45.37;100265.84;4422986;32;20037;-73
2021/07/12 04:56:35;;;;;;;11.07;6.28;;;;;;;26.96;45.60;100267.31;4420355;32;20052;-74
2021/07/12 04:59:04;;;;;;;8.93;6.70;;;;;;;26.99;45.35;100268.31;4422404;32;20095;-74
2021/07/12 05:01:33;;;;;;;10.85;7.60;;;;;;;26.98;45.59;100258.88;4419650;32;20041;-74
2021/07/12 05:04:03;;;;;;;12.18;7.10;;;;;;;27.20;45.18;100264.06;4408031;32;20740;-74
2021/07/12 05:06:28;;;;;;;9.13;6.55;;;;;;;27.23;45.32;100260.06;4421623;32;20099;-73
2021/07/12 05:08:55;;;;;;;9.43;5.85;;;;;;;26.81;45.67;100263.50;4422363;32;20089;-74
2021/07/12 05:11:22;;;;;;;10.00;5.53;;;;;;;26.86;45.10;100266.28;4421017;32;20077;-72
2021/07/12 05:13:48;;;;;;;13.98;7.90;;;;;;;26.90;45.35;100260.13;4419716;32;20050;-73
2021/07/12 05:16:14;;;;;;;9.77;5.85;;;;;;;26.88;45.41;100254.91;4422190;32;20086;-73
2021/07/12 05:18:40;;;;;;;9.30;5.47;;;;;;;26.84;45.23;100260.28;4423485;32;20038;-72
2021/07/12 05:21:05;;;;;;;8.68;5.20;;;;;;;26.96;44.90;100260.78;4408586;32;20061;-74
2021/07/12 05:23:31;;;;;;;13.05;5.47;;;;;;;26.94;45.38;100260.56;4421746;32;20112;-74
2021/07/12 05:25:58;;;;;;;9.43;5.57;;;;;;;26.93;45.23;100264.78;4422967;32;20149;-74
2021/07/12 05:28:24;;;;;;;11.85;6.07;;;;;;;27.03;45.38;100260.09;4419984;32;20034;-74
2021/07/12 05:30:50;;;;;;;10.68;6.25;;;;;;;26.98;45.17;100258.09;4424315;32;20068;-72
2021/07/12 05:33:16;;;;;;;11.88;7.35;;;;;;;27.05;45.71;100249.50;4409995;32;20037;-73
2021/07/12 05:35:42;;;;;;;11.60;7.32;;;;;;;27.03;45.54;100252.16;4423114;32;20095;-73
2021/07/12 05:38:09;;;;;;;11.02;7.07;;;;;;;26.98;45.55;100255.22;4420511;32;20037;-73
2021/07/12 05:40:35;;;;;;;10.20;7.15;;;;;;;27.12;45.13;100248.03;4420270;32;20033;-73
2021/07/12 05:43:01;;;;;;;9.38;6.30;;;;;;;27.06;45.68;100253.19;4423394;32;20437;-73
2021/07/12 05:45:27;;;;;;;9.35;6.03;;;;;;;26.91;45.45;100265.34;4418240;32;20064;-73
2021/07/12 05:47:53;;;;;;;13.73;8.27;;;;;;;26.95;45.38;100260.00;4421526;32;20176;-74
2021/07/12 05:50:19;;;;;;;12.68;7.20;;;;;;;27.09;45.51;100249.16;4419397;32;20659;-73
2021/07/12 05:52:45;;;;;;;9.45;6.60;;;;;;;27.13;45.54;100252.44;4419305;32;20630;-73
2021/07/12 05:55:12;;;;;;;12.63;7.62;;;;;;;27.29;45.18;100254.16;4420025;32;20156;-73
2021/07/12 05:57:38;;;;;;;13.88;7.30;;;;;;;27.45;44.98;100258.69;4421336;32;20074;-74
2021/07/12 06:00:06;;;;;;;10.15;6.72;;;;;;;27.41;44.39;100263.28;4405060;32;20122;-74
2021/07/12 06:02:31;;;;;;;11.07;5.70;;;;;;;27.55;44.58;100253.16;4416895;32;20073;-74
2021/07/12 06:04:58;;;;;;;13.02;6.40;;;;;;;27.48;44.73;100256.78;4418913;32;20104;-74
2021/07/12 06:07:24;;;;;;;8.73;5.62;;;;;;;27.63;44.39;100254.75;4421414;32;20070;-75
2021/07/12 06:09:49;;;;;;;9.98;5.90;;;;;;;27.71;43.42;100264.25;4416697;32;20095;-73
2021/07/12 06:12:15;;;;;;;8.75;5.50;;;;;;;27.85;43.36;100257.00;4419394;32;20092;-73
2021/07/12 06:14:41;;;;;;;7.10;5.07;;;;;;;27.91;42.92;100262.62;4420804;32;20434;-73
2021/07/12 06:17:07;;;;;;;5.72;4.30;;;;;;;28.20;42.79;100259.12;4418098;32;20073;-73
2021/07/12 06:19:32;;;;;;;10.73;6.72;;;;;;;28.31;42.67;100258.00;4419447;32;20064;-73
2021/07/12 06:21:58;;;;;;;13.73;6.50;;;;;;;28.49;42.57;100254.81;4421579;32;20033;-74
2021/07/12 06:24:24;;;;;;;10.40;6.57;;;;;;;28.64;42.66;100265.66;4421678;32;20018;-73
2021/07/12 06:26:49;;;;;;;9.25;5.35;;;;;;;28.55;42.92;100255.41;4420265;32;20094;-74
2021/07/12 06:29:15;;;;;;;9.38;5.72;;;;;;;28.73;41.20;100257.19;4406247;32;20373;-74
2021/07/12 06:31:41;;;;;;;7.60;4.82;;;;;;;28.94;40.76;100257.78;4420891;32;20211;-73
2021/07/12 06:34:07;;;;;;;10.88;4.75;;;;;;;28.64;40.92;100260.63;4418754;32;20075;-73
2021/07/12 06:36:32;;;;;;;9.20;5.30;;;;;;;28.65;40.86;100258.50;4417326;32;20057;-73
2021/07/12 06:38:58;;;;;;;7.57;4.95;;;;;;;28.68;40.93;100266.81;4415847;32;20046;-74
2021/07/12 06:41:24;;;;;;;7.12;4.65;;;;;;;28.82;40.83;100258.72;4414932;32;20401;-74
2021/07/12 06:43:51;;;;;;;6.70;4.55;;;;;;;28.69;40.39;100261.81;4409963;32;20638;-73
2021/07/12 06:46:17;;;;;;;6.70;4.57;;;;;;;28.64;40.23;100260.63;4411102;32;20368;-76
2021/07/12 06:48:43;;;;;;;7.87;4.78;;;;;;;28.62;40.90;100253.84;4413561;32;20442;-74
2021/07/12 06:51:09;;;;;;;8.15;4.82;;;;;;;28.68;40.57;100255.22;4410152;32;20029;-74
2021/07/12 06:53:35;;;;;;;8.18;4.65;;;;;;;28.58;40.88;100253.47;4408468;32;20371;-75
2021/07/12 06:56:03;;;;;;;9.48;5.30;;;;;;;28.70;40.95;100255.44;4411638;32;20091;-78
2021/07/12 06:58:29;;;;;;;10.40;4.65;;;;;;;28.89;40.54;100255.84;4412890;32;20143;-76
2021/07/12 07:00:55;;;;;;;5.65;4.20;;;;;;;28.88;40.90;100259.31;4407829;32;20853;-75
2021/07/12 07:03:22;;;;;;;7.80;3.80;;;;;;;28.89;40.15;100264.53;4395227;32;20171;-77
2021/07/12 07:05:48;;;;;;;7.70;4.45;;;;;;;28.97;39.63;100259.50;4413878;32;20374;-75
2021/07/12 07:08:13;;;;;;;9.02;3.83;;;;;;;28.92;39.18;100257.59;4413447;32;20029;-75
2021/07/12 07:10:39;;;;;;;6.25;3.85;;;;;;;29.05;39.36;100261.69;4412473;32;20191;-76
2021/07/12 07:13:05;;;;;;;6.57;4.07;;;;;;;29.17;39.49;100266.50;4414529;32;20073;-75
2021/07/12 07:15:31;;;;;;;6.60;3.87;;;;;;;29.06;39.37;100266.12;4415404;32;20127;-76
2021/07/12 07:17:59;;;;;;;7.82;4.32;;;;;;;28.98;38.92;100260.28;4412257;32;20102;-74
2021/07/12 07:20:25;;;;;;;7.28;4.28;;;;;;;29.18;39.22;100264.37;4409488;32;20468;-76
2021/07/12 07:22:51;;;;;;;4.40;3.50;;;;;;;29.25;38.84;100257.78;4413464;32;20092;-76
2021/07/12 07:25:17;;;;;;;6.07;4.35;;;;;;;29.37;37.89;100264.75;4413557;32;20070;-75
2021/07/12 07:27:44;;;;;;;4.55;3.22;;;;;;;29.50;38.27;100268.22;4411956;32;20103;-78
2021/07/12 07:30:12;;;;;;;4.07;3.17;;;;;;;29.61;37.87;100267.03;4409307;32;20089;-75
2021/07/12 07:32:38;;;;;;;4.75;2.90;;;;;;;29.46;37.99;100267.06;4411565;32;20295;-75
2021/07/12 07:35:06;;;;;;;5.00;3.37;;;;;;;29.75;37.50;100269.16;4411164;32;20457;-75
2021/07/12 07:37:31;;;;;;;5.18;3.00;;;;;;;29.57;38.02;100275.38;4411302;32;20146;-74
2021/07/12 07:39:58;;;;;;;6.40;3.50;;;;;;;29.59;37.73;100276.31;4394085;32;20373;-75
2021/07/12 07:42:24;;;;;;;3.35;2.72;;;;;;;29.51;37.22;100277.69;4411331;32;20148;-74
2021/07/12 07:44:51;;;;;;;4.43;3.47;;;;;;;29.64;37.43;100269.59;4413616;32;20380;-76
2021/07/12 07:47:17;;;;;;;6.62;4.37;;;;;;;29.66;38.52;100269.00;4413663;32;20069;-77
2021/07/12 07:49:42;;;;;;;6.65;3.87;;;;;;;29.56;38.85;100271.69;4414716;32;20432;-74
2021/07/12 07:52:08;;;;;;;6.55;3.90;;;;;;;29.41;38.18;100274.59;4414096;32;20088;-74
2021/07/12 07:54:34;;;;;;;8.75;4.62;;;;;;;29.24;38.32;100267.84;4413031;32;20476;-76
2021/07/12 07:57:00;;;;;;;7.80;6.30;;;;;;;29.16;38.96;100272.88;4412975;32;20041;-74
2021/07/12 07:59:26;;;;;;;7.78;5.05;;;;;;;29.22;39.57;100274.22;4411432;32;20061;-75
2021/07/12 08:01:51;;;;;;;6.50;4.97;;;;;;;29.14;38.43;100273.44;4416157;32;20171;-75
2021/07/12 08:04:17;;;;;;;6.07;4.40;;;;;;;29.13;39.57;100274.03;4414775;32;20089;-76
2021/07/12 08:06:43;;;;;;;4.82;3.92;;;;;;;29.32;39.14;100268.63;4414308;32;20126;-77
2021/07/12 08:09:09;;;;;;;9.05;4.45;;;;;;;29.28;37.98;100271.91;4415125;32;20088;-76
2021/07/12 08:11:36;;;;;;;11.50;3.62;;;;;;;29.35;38.88;100271.13;4413419;32;20077;-78
2021/07/12 08:14:02;;;;;;;5.40;3.12;;;;;;;28.91;39.20;100273.44;4412693;32;20104;-77
2021/07/12 08:16:28;;;;;;;7.05;3.90;;;;;;;29.31;38.39;100278.66;4415124;32;20069;-77
2021/07/12 08:18:55;;;;;;;7.55;3.37;;;;;;;29.47;38.65;100272.28;4412104;32;20115;-76
2021/07/12 08:21:21;;;;;;;4.20;2.87;;;;;;;29.32;39.58;100280.97;4412066;32;20037;-76
2021/07/12 08:23:48;;;;;;;4.18;2.53;;;;;;;29.25;38.49;100275.19;4411512;32;20169;-76
2021/07/12 08:26:14;;;;;;;8.77;4.40;;;;;;;29.43;38.54;100279.81;4413701;32;20146;-76
2021/07/12 08:28:41;;;;;;;6.03;3.20;;;;;;;29.34;38.71;100274.59;4409955;32;20087;-78
2021/07/12 08:31:09;;;;;;;4.35;2.50;;;;;;;29.79;38.57;100278.22;4415086;32;20081;-76
2021/07/12 08:33:36;;;;;;;4.15;2.50;;;;;;;29.66;38.29;100277.69;4413745;32;20077;-78
2021/07/12 08:36:02;;;;;;;3.72;2.90;;;;;;;29.60;38.24;100274.97;4417119;32;20074;-77
2021/07/12 08:38:28;;;;;;;3.55;2.20;;;;;;;29.75;38.44;100279.97;4412295;32;20339;-76
2021/07/12 08:40:55;;;;;;;8.00;2.80;;;;;;;29.87;38.58;100266.59;4417002;32;20184;-77
2021/07/12 08:43:23;;;;;;;3.45;2.60;;;;;;;30.03;38.99;100276.81;4416296;32;20080;-76
2021/07/12 08:45:50;;;;;;;4.80;2.58;;;;;;;30.11;37.83;100271.75;4412078;32;20074;-74
2021/07/12 08:48:16;;;;;;;3.85;2.90;;;;;;;30.56;37.59;100275.22;4398889;32;20767;-73
2021/07/12 08:50:45;;;;;;;3.30;2.20;;;;;;;30.77;37.74;100278.63;4412142;32;20429;-75
2021/07/12 08:53:14;;;;;;;4.18;1.40;;;;;;;31.37;35.40;100277.41;4409902;32;20456;-75
2021/07/12 08:55:43;;;;;;;4.72;2.10;;;;;;;31.29;34.34;100285.41;4415279;32;20355;-75
2021/07/12 09:00:53;;;;;;;2.00;1.52;;;;;;;32.66;32.81;100283.31;3975281;32;15023867;-75
2021/07/12 09:03:24;;;;;;;2.97;1.75;;;;;;;32.66;32.81;100283.31;4426673;32;20101;-73
2021/07/12 09:06:12;;;;;;;2.00;1.65;;;;;;;32.32;32.85;100277.53;4425133;32;20085;-78
2021/07/12 09:11:19;;;;;;;2.63;2.07;;;;;;;33.32;31.23;100282.91;3983543;31;15017241;-78
2021/07/12 09:16:43;;;;;;;4.87;2.17;;;;;;;33.70;30.82;100280.09;3978165;32;15026542;-78
2021/07/12 09:27:19;;;;;;;3.90;2.30;;;;;;;32.54;32.92;100280.19;3974571;32;15027000;-75
2021/07/12 09:32:23;;;;;;;3.60;2.28;;;;;;;31.98;34.17;100280.50;3973774;32;15023556;-79
2021/07/12 09:34:54;;;;;;;3.60;2.12;;;;;;;31.98;34.17;100280.50;4429737;32;20484;-77
2021/07/12 09:37:20;;;;;;;3.67;2.72;;;;;;;31.67;34.01;100271.31;4437172;32;20148;-77
2021/07/12 09:39:49;;;;;;;4.68;3.92;;;;;;;31.46;36.50;100273.84;4426712;32;20073;-75
2021/07/12 09:42:26;;;;;;;5.45;4.12;;;;;;;31.49;36.03;100275.56;4429656;32;20379;-75
2021/07/12 09:44:56;;;;;;;7.22;4.30;;;;;;;31.60;35.86;100272.13;4427186;32;20065;-76
2021/07/12 09:47:29;;;;;;;4.87;3.70;;;;;;;31.79;35.39;100281.06;4430579;32;20510;-77
2021/07/12 09:50:03;;;;;;;9.00;3.90;;;;;;;31.43;34.90;100275.03;4430018;32;20448;-76
2021/07/12 09:52:37;;;;;;;6.87;4.05;;;;;;;31.30;35.22;100272.44;4427254;32;20103;-78
2021/07/12 09:55:04;;;;;;;5.82;4.18;;;;;;;31.44;34.66;100264.94;4428924;32;20061;-75
2021/07/12 09:57:30;;;;;;;5.87;4.15;;;;;;;31.08;36.38;100261.75;4427682;32;20103;-76
2021/07/12 10:02:40;;;;;;;6.93;4.22;;;;;;;30.68;36.68;100266.84;3974730;32;15024861;-77
2021/07/12 10:05:10;;;;;;;7.43;3.95;;;;;;;30.33;36.83;100270.91;4430665;32;20099;-76
2021/07/12 10:07:36;;;;;;;4.87;4.37;;;;;;;30.07;35.97;100268.50;4428322;32;20122;-77
2021/07/12 10:10:05;;;;;;;7.30;4.35;;;;;;;29.71;37.24;100262.22;4425870;32;20081;-76
2021/07/12 10:12:31;;;;;;;5.20;4.20;;;;;;;29.79;37.09;100263.72;4431512;32;20097;-75
2021/07/12 10:14:57;;;;;;;6.12;4.20;;;;;;;29.39;37.51;100262.81;4428257;32;20573;-76
2021/07/12 10:17:23;;;;;;;6.87;4.35;;;;;;;29.22;37.23;100261.84;4430744;32;20569;-78
2021/07/12 10:19:50;;;;;;;7.00;5.03;;;;;;;29.11;38.36;100259.38;4428316;32;20415;-76
2021/07/12 10:22:20;;;;;;;6.87;4.20;;;;;;;29.19;38.43;100263.81;4426153;32;20487;-78
2021/07/12 10:24:47;;;;;;;7.18;5.40;;;;;;;28.88;38.55;100263.00;4429016;32;20049;-77
2021/07/12 10:27:28;;;;;;;7.50;3.87;;;;;;;28.90;38.94;100271.88;4431698;32;20547;-78
2021/07/12 10:29:57;;;;;;;6.12;3.55;;;;;;;29.06;38.30;100263.22;4427009;32;20333;-77
2021/07/12 10:32:25;;;;;;;5.37;3.70;;;;;;;28.89;37.97;100264.53;4431199;32;20469;-77
2021/07/12 10:34:53;;;;;;;6.15;3.87;;;;;;;28.86;39.91;100264.91;4431201;32;20761;-75
2021/07/12 10:42:53;;;;;;;5.65;4.28;;;;;;;29.46;40.43;100259.16;3956432;32;15022821;-75
2021/07/12 10:56:09;;;;;;;6.12;4.25;;;;;;;29.93;38.48;100267.16;3970184;32;15023534;-78
2021/07/12 11:01:16;;;;;;;6.55;3.83;;;;;;;30.41;38.64;100265.84;3947234;32;15723563;-77
2021/07/12 11:03:44;;;;;;;4.47;3.50;;;;;;;30.41;38.64;100265.84;4413643;32;20083;-77
2021/07/12 11:08:48;;;;;;;6.25;3.15;;;;;;;29.74;39.39;100270.53;3949491;32;15725412;-75
2021/07/12 11:16:45;;;;;;;7.70;4.75;;;;;;;29.03;41.66;100262.97;3972596;32;15028666;-77
2021/07/12 11:21:54;;;;;;;8.57;5.28;;;;;;;29.10;42.22;100266.50;3970453;32;15025877;-77
2021/07/12 11:24:23;;;;;;;8.70;4.78;;;;;;;28.89;42.78;100266.66;4421394;32;20067;-76
2021/07/12 11:26:52;;;;;;;13.23;5.93;;;;;;;28.65;43.45;100270.06;4417474;32;20046;-74
2021/07/12 11:29:25;;;;;;;9.52;5.45;;;;;;;28.71;43.22;100268.56;4417192;32;21330;-74
2021/07/12 11:31:54;;;;;;;9.85;4.95;;;;;;;28.74;43.87;100267.41;4416970;32;20127;-74
2021/07/12 11:37:07;;;;;;;8.68;5.30;;;;;;;28.48;43.63;100270.63;3974060;32;15024217;-75
2021/07/12 11:39:35;;;;;;;8.18;4.90;;;;;;;28.48;43.63;100270.63;4428847;32;20076;-77
2021/07/12 11:42:19;;;;;;;8.43;4.00;;;;;;;28.11;44.64;100261.78;4427296;32;20046;-76
2021/07/12 11:44:50;;;;;;;5.90;3.67;;;;;;;27.89;43.77;100274.78;4428922;32;20074;-75
2021/07/12 11:47:20;;;;;;;6.32;4.20;;;;;;;27.65;44.48;100266.53;4423366;32;20495;-75
2021/07/12 11:49:53;;;;;;;5.53;4.30;;;;;;;27.97;44.70;100269.81;4426375;32;20143;-74
2021/07/12 11:52:19;;;;;;;5.47;3.80;;;;;;;28.83;42.50;100260.25;4428443;32;20037;-74
2021/07/12 11:54:44;;;;;;;7.90;3.70;;;;;;;28.63;42.30;100270.66;4428731;32;20168;-74
2021/07/12 11:57:14;;;;;;;4.65;3.35;;;;;;;28.38;41.36;100277.53;4427827;32;20033;-74
2021/07/12 11:59:41;;;;;;;5.45;3.65;;;;;;;28.73;40.91;100271.66;4425259;32;21082;-75
2021/07/12 12:02:11;;;;;;;10.07;6.03;;;;;;;28.64;42.11;100271.44;4420137;32;20061;-74
2021/07/12 12:04:42;;;;;;;11.32;6.53;;;;;;;28.98;41.82;100260.28;4418409;32;20049;-74
2021/07/12 12:12:53;;;;;;;11.03;6.67;;;;;;;30.17;41.57;100269.41;3989099;31;15019258;-74
2021/07/12 12:15:25;;;;;;;12.45;6.47;;;;;;;30.17;41.57;100269.41;4441973;32;20273;-73
2021/07/12 12:18:10;;;;;;;12.85;6.90;;;;;;;30.05;41.80;100279.91;4444030;32;20092;-74
2021/07/12 12:20:39;;;;;;;9.52;6.40;;;;;;;30.30;41.23;100275.75;4441544;32;20122;-73
2021/07/12 12:31:32;;;;;;;8.05;5.90;;;;;;;31.00;39.94;100272.66;3974123;32;15023703;-74
2021/07/12 12:36:41;;;;;;;10.85;5.60;;;;;;;30.88;40.22;100273.69;3988001;31;15017187;-73
2021/07/12 12:39:13;;;;;;;9.70;4.72;;;;;;;30.30;40.53;100274.97;4438902;32;20773;-74
2021/07/12 12:44:37;;;;;;;6.95;5.12;;;;;;;31.11;39.08;100275.09;3947500;32;15723411;-76
2021/07/12 12:47:03;;;;;;;7.97;5.90;;;;;;;31.11;39.08;100275.09;4425632;32;20123;-76
2021/07/12 12:52:11;;;;;;;9.18;5.20;;;;;;;30.49;40.85;100272.38;3969887;32;15032381;-75
2021/07/12 12:54:39;;;;;;;7.43;5.12;;;;;;;30.22;40.57;100265.56;4422819;32;20398;-74
2021/07/12 12:57:06;;;;;;;7.35;5.20;;;;;;;30.47;40.48;100263.50;4422793;32;20100;-76
2021/07/12 12:59:35;;;;;;;9.95;5.85;;;;;;;30.32;40.49;100266.47;4422172;32;20037;-73
2021/07/12 13:02:06;;;;;;;9.95;5.47;;;;;;;30.74;40.94;100267.44;4413346;32;20101;-74
2021/07/12 13:04:54;;;;;;;6.00;4.32;;;;;;;30.80;39.17;100265.06;4408869;32;20098;-75